This is the latest recevied weather packets stored in our database for station/object K4IR. If no packets are shown the sender has not sent any weather packets the latest 10 day(s).
| Time | Temp. | Humidity | Pressure | Rain* | Wind** | Luminosity | Snow |
|---|---|---|---|---|---|---|---|
| 1777989552 | 21.11° C | 69% | 1018.6 hPa | 0 mm | - | 116 W/m² | - |
| 1777988951 | 21.11° C | 69% | 1018.9 hPa | 0 mm | - | 88 W/m² | - |
| 1777988349 | 21.11° C | 69% | 1018.7 hPa | 0 mm | - | 104 W/m² | - |
| 1777987748 | 21.67° C | 67% | 1018.5 hPa | 0 mm | - | 187 W/m² | - |
| 1777987149 | 21.11° C | 69% | 1018.7 hPa | 0 mm | - | 200 W/m² | - |
| 1777986543 | 22.22° C | 67% | 1018.5 hPa | 0 mm | - | 78 W/m² | - |
| 1777985944 | 22.22° C | 70% | 1018.5 hPa | 0 mm | - | 377 W/m² | - |
| 1777985343 | 21.67° C | 75% | 1018.5 hPa | 0 mm | - | 288 W/m² | - |
| 1777984742 | 21.11° C | 80% | 1018.5 hPa | 0 mm | - | 217 W/m² | - |
| 1777984140 | 20° C | 79% | 1018.5 hPa | 0 mm | - | 178 W/m² | - |
| 1777983540 | 18.33° C | 85% | 1018.3 hPa | 0 mm | - | 135 W/m² | - |
| 1777982939 | 16.11° C | 96% | 1018.6 hPa | 0 mm | - | 57 W/m² | - |
| 1777982334 | 14.44° C | 98% | 1018.3 hPa | 0 mm | - | 42 W/m² | - |
| 1777981729 | 13.89° C | 99% | 1018.5 hPa | 0 mm | - | 58 W/m² | - |
| 1777981127 | 11.67° C | 99% | 1018.1 hPa | 0 mm | - | 44 W/m² | - |
| 1777980525 | 10.56° C | 99% | 1018 hPa | 0 mm | - | 37 W/m² | - |
| 1777979925 | 10° C | 99% | 1017.9 hPa | 0 mm | - | 33 W/m² | - |
| 1777979322 | 10° C | 98% | 1017.9 hPa | 0 mm | - | 24 W/m² | - |
| 1777978721 | 10° C | 98% | 1017.8 hPa | 0 mm | - | 18 W/m² | - |
| 1777978119 | 9.44° C | 98% | 1017.7 hPa | 0 mm | - | 15 W/m² | - |
| 1777977519 | 9.44° C | 98% | 1017.6 hPa | 0 mm | - | 10 W/m² | - |
| 1777976914 | 9.44° C | 98% | 1017.4 hPa | 0 mm | - | 5 W/m² | - |
| 1777976313 | 9.44° C | 98% | 1017.3 hPa | 0 mm | - | 2 W/m² | - |
| 1777975710 | 9.44° C | 98% | 1017.2 hPa | 0 mm | - | 0 W/m² | - |
| 1777975108 | 9.44° C | 98% | 1017 hPa | 0 mm | - | 0 W/m² | - |
* Rain latest hour (hover to see other rain measurements)
** Current wind speed in m/s (hover to see current wind gust speed)